sensor_id;sensor_type;location;lat;lon;timestamp;temperature;humidity
8220;DHT22;4151;51.110;7.020;2023-02-28T00:02:20;-0.40;99.90
8220;DHT22;4151;51.110;7.020;2023-02-28T00:04:45;-0.40;99.90
8220;DHT22;4151;51.110;7.020;2023-02-28T00:07:18;-0.30;99.90
8220;DHT22;4151;51.110;7.020;2023-02-28T00:09:44;-0.40;99.90
8220;DHT22;4151;51.110;7.020;2023-02-28T00:12:09;-0.40;99.90
8220;DHT22;4151;51.110;7.020;2023-02-28T00:14:40;-0.50;99.90
8220;DHT22;4151;51.110;7.020;2023-02-28T00:17:05;-0.50;99.90
8220;DHT22;4151;51.110;7.020;2023-02-28T00:19:31;-0.60;99.90
8220;DHT22;4151;51.110;7.020;2023-02-28T00:21:57;-0.60;99.90
8220;DHT22;4151;51.110;7.020;2023-02-28T00:24:22;-0.60;99.90
8220;DHT22;4151;51.110;7.020;2023-02-28T00:26:48;-0.70;99.90
8220;DHT22;4151;51.110;7.020;2023-02-28T00:29:13;-0.70;99.90
8220;DHT22;4151;51.110;7.020;2023-02-28T00:31:39;-0.80;99.90
8220;DHT22;4151;51.110;7.020;2023-02-28T00:34:04;-0.80;99.90
8220;DHT22;4151;51.110;7.020;2023-02-28T00:36:30;-0.90;99.90
8220;DHT22;4151;51.110;7.020;2023-02-28T00:38:55;-0.90;99.90
8220;DHT22;4151;51.110;7.020;2023-02-28T00:41:21;-0.90;99.90
8220;DHT22;4151;51.110;7.020;2023-02-28T00:43:46;-1.00;99.90
8220;DHT22;4151;51.110;7.020;2023-02-28T00:46:12;-1.00;99.90
8220;DHT22;4151;51.110;7.020;2023-02-28T00:48:37;-1.00;99.90
8220;DHT22;4151;51.110;7.020;2023-02-28T00:51:03;-1.00;99.90
8220;DHT22;4151;51.110;7.020;2023-02-28T00:53:29;-1.00;99.90
8220;DHT22;4151;51.110;7.020;2023-02-28T00:55:55;-1.10;99.90
8220;DHT22;4151;51.110;7.020;2023-02-28T00:58:20;-1.10;99.90
8220;DHT22;4151;51.110;7.020;2023-02-28T01:00:46;-1.10;99.90
8220;DHT22;4151;51.110;7.020;2023-02-28T01:03:14;-1.10;99.90
8220;DHT22;4151;51.110;7.020;2023-02-28T01:05:40;-1.10;99.90
8220;DHT22;4151;51.110;7.020;2023-02-28T01:08:06;-1.10;99.90
8220;DHT22;4151;51.110;7.020;2023-02-28T01:10:32;-1.10;99.90
8220;DHT22;4151;51.110;7.020;2023-02-28T01:12:58;-1.10;99.90
8220;DHT22;4151;51.110;7.020;2023-02-28T01:15:23;-1.10;99.90
8220;DHT22;4151;51.110;7.020;2023-02-28T01:17:49;-1.10;99.90
8220;DHT22;4151;51.110;7.020;2023-02-28T01:20:15;-1.10;99.90
8220;DHT22;4151;51.110;7.020;2023-02-28T01:22:40;-1.20;99.90
8220;DHT22;4151;51.110;7.020;2023-02-28T01:25:06;-1.20;99.90
8220;DHT22;4151;51.110;7.020;2023-02-28T01:27:33;-1.20;99.90
8220;DHT22;4151;51.110;7.020;2023-02-28T01:29:59;-1.20;99.90
8220;DHT22;4151;51.110;7.020;2023-02-28T01:32:24;-1.20;99.90
8220;DHT22;4151;51.110;7.020;2023-02-28T01:34:50;-1.20;99.90
8220;DHT22;4151;51.110;7.020;2023-02-28T01:37:15;-1.20;99.90
8220;DHT22;4151;51.110;7.020;2023-02-28T01:39:41;-1.10;99.90
8220;DHT22;4151;51.110;7.020;2023-02-28T01:42:09;-1.10;99.90
8220;DHT22;4151;51.110;7.020;2023-02-28T01:45:01;-1.20;99.90
8220;DHT22;4151;51.110;7.020;2023-02-28T01:47:35;-1.20;99.90
8220;DHT22;4151;51.110;7.020;2023-02-28T01:50:03;-1.20;99.90
8220;DHT22;4151;51.110;7.020;2023-02-28T01:52:32;-1.20;99.90
8220;DHT22;4151;51.110;7.020;2023-02-28T01:54:59;-1.20;99.90
8220;DHT22;4151;51.110;7.020;2023-02-28T01:57:30;-1.30;99.90
8220;DHT22;4151;51.110;7.020;2023-02-28T02:00:06;-1.30;99.90
8220;DHT22;4151;51.110;7.020;2023-02-28T02:02:33;-1.30;99.90
8220;DHT22;4151;51.110;7.020;2023-02-28T02:05:18;-1.30;99.90
8220;DHT22;4151;51.110;7.020;2023-02-28T02:07:47;-1.40;99.90
8220;DHT22;4151;51.110;7.020;2023-02-28T02:10:30;-1.40;99.90
8220;DHT22;4151;51.110;7.020;2023-02-28T02:15:59;-1.40;99.90
8220;DHT22;4151;51.110;7.020;2023-02-28T02:35:31;-1.70;99.90
8220;DHT22;4151;51.110;7.020;2023-02-28T02:38:08;-1.60;99.90
8220;DHT22;4151;51.110;7.020;2023-02-28T02:40:46;-1.60;99.90
8220;DHT22;4151;51.110;7.020;2023-02-28T02:43:36;-1.50;99.90
8220;DHT22;4151;51.110;7.020;2023-02-28T02:46:16;-1.40;99.90
8220;DHT22;4151;51.110;7.020;2023-02-28T02:48:44;-1.30;99.90
8220;DHT22;4151;51.110;7.020;2023-02-28T02:51:14;-1.20;99.90
8220;DHT22;4151;51.110;7.020;2023-02-28T02:53:47;-1.20;99.90
8220;DHT22;4151;51.110;7.020;2023-02-28T02:56:16;-1.30;99.90
8220;DHT22;4151;51.110;7.020;2023-02-28T02:58:44;-1.30;99.90
8220;DHT22;4151;51.110;7.020;2023-02-28T03:01:21;-1.40;99.90
8220;DHT22;4151;51.110;7.020;2023-02-28T03:03:57;-1.50;99.90
8220;DHT22;4151;51.110;7.020;2023-02-28T03:06:24;-1.50;99.90
8220;DHT22;4151;51.110;7.020;2023-02-28T03:08:50;-1.60;99.90
8220;DHT22;4151;51.110;7.020;2023-02-28T03:11:15;-1.70;99.90
8220;DHT22;4151;51.110;7.020;2023-02-28T03:28:08;-2.00;99.90
8220;DHT22;4151;51.110;7.020;2023-02-28T03:30:54;-2.00;99.90
8220;DHT22;4151;51.110;7.020;2023-02-28T03:33:32;-2.00;99.90
8220;DHT22;4151;51.110;7.020;2023-02-28T03:36:04;-2.00;99.90
8220;DHT22;4151;51.110;7.020;2023-02-28T03:38:35;-2.00;99.90
8220;DHT22;4151;51.110;7.020;2023-02-28T03:41:29;-2.00;99.90
8220;DHT22;4151;51.110;7.020;2023-02-28T03:43:59;-2.10;99.90
8220;DHT22;4151;51.110;7.020;2023-02-28T03:46:31;-2.10;99.90
8220;DHT22;4151;51.110;7.020;2023-02-28T03:49:10;-2.10;99.90
8220;DHT22;4151;51.110;7.020;2023-02-28T03:51:38;-2.20;99.90
8220;DHT22;4151;51.110;7.020;2023-02-28T03:54:12;-2.10;99.90
8220;DHT22;4151;51.110;7.020;2023-02-28T03:59:37;-2.00;99.90
8220;DHT22;4151;51.110;7.020;2023-02-28T04:02:04;-1.90;99.90
8220;DHT22;4151;51.110;7.020;2023-02-28T04:04:30;-1.90;99.90
8220;DHT22;4151;51.110;7.020;2023-02-28T04:07:08;-1.80;99.90
8220;DHT22;4151;51.110;7.020;2023-02-28T04:09:34;-1.80;99.90
8220;DHT22;4151;51.110;7.020;2023-02-28T04:12:00;-1.70;99.90
8220;DHT22;4151;51.110;7.020;2023-02-28T04:14:25;-1.70;99.90
8220;DHT22;4151;51.110;7.020;2023-02-28T04:16:51;-1.60;99.90
8220;DHT22;4151;51.110;7.020;2023-02-28T04:19:18;-1.50;99.90
8220;DHT22;4151;51.110;7.020;2023-02-28T04:21:46;-1.50;99.90
8220;DHT22;4151;51.110;7.020;2023-02-28T04:24:14;-1.50;99.90
8220;DHT22;4151;51.110;7.020;2023-02-28T04:26:42;-1.60;99.90
8220;DHT22;4151;51.110;7.020;2023-02-28T04:29:09;-1.60;99.90
8220;DHT22;4151;51.110;7.020;2023-02-28T04:31:35;-1.50;99.90
8220;DHT22;4151;51.110;7.020;2023-02-28T04:34:01;-1.50;99.90
8220;DHT22;4151;51.110;7.020;2023-02-28T04:36:27;-1.40;99.90
8220;DHT22;4151;51.110;7.020;2023-02-28T04:38:52;-1.40;99.90
8220;DHT22;4151;51.110;7.020;2023-02-28T04:41:19;-1.40;99.90
8220;DHT22;4151;51.110;7.020;2023-02-28T04:43:44;-1.40;99.90
8220;DHT22;4151;51.110;7.020;2023-02-28T04:46:10;-1.40;99.90
8220;DHT22;4151;51.110;7.020;2023-02-28T04:48:38;-1.40;99.90
8220;DHT22;4151;51.110;7.020;2023-02-28T05:01:26;-1.50;99.90
8220;DHT22;4151;51.110;7.020;2023-02-28T05:03:54;-1.40;99.90
8220;DHT22;4151;51.110;7.020;2023-02-28T05:06:21;-1.40;99.90
8220;DHT22;4151;51.110;7.020;2023-02-28T05:08:47;-1.40;99.90
8220;DHT22;4151;51.110;7.020;2023-02-28T05:11:23;-1.50;99.90
8220;DHT22;4151;51.110;7.020;2023-02-28T05:13:50;-1.60;99.90
8220;DHT22;4151;51.110;7.020;2023-02-28T05:16:17;-1.60;99.90
8220;DHT22;4151;51.110;7.020;2023-02-28T05:18:42;-1.70;99.90
8220;DHT22;4151;51.110;7.020;2023-02-28T05:21:24;-1.60;99.90
8220;DHT22;4151;51.110;7.020;2023-02-28T05:23:51;-1.60;99.90
8220;DHT22;4151;51.110;7.020;2023-02-28T05:26:16;-1.70;99.90
8220;DHT22;4151;51.110;7.020;2023-02-28T05:28:42;-1.70;99.90
8220;DHT22;4151;51.110;7.020;2023-02-28T05:31:10;-1.70;99.90
8220;DHT22;4151;51.110;7.020;2023-02-28T05:33:36;-1.70;99.90
8220;DHT22;4151;51.110;7.020;2023-02-28T05:36:01;-1.80;99.90
8220;DHT22;4151;51.110;7.020;2023-02-28T05:38:27;-1.70;99.90
8220;DHT22;4151;51.110;7.020;2023-02-28T05:40:53;-1.60;99.90
8220;DHT22;4151;51.110;7.020;2023-02-28T05:43:18;-1.60;99.90
8220;DHT22;4151;51.110;7.020;2023-02-28T05:45:44;-1.60;99.90
8220;DHT22;4151;51.110;7.020;2023-02-28T05:48:09;-1.60;99.90
8220;DHT22;4151;51.110;7.020;2023-02-28T05:50:35;-1.60;99.90
8220;DHT22;4151;51.110;7.020;2023-02-28T05:53:01;-1.60;99.90
8220;DHT22;4151;51.110;7.020;2023-02-28T05:55:27;-1.60;99.90
8220;DHT22;4151;51.110;7.020;2023-02-28T05:57:52;-1.60;99.90
8220;DHT22;4151;51.110;7.020;2023-02-28T06:00:18;-1.70;99.90
8220;DHT22;4151;51.110;7.020;2023-02-28T06:02:44;-1.70;99.90
8220;DHT22;4151;51.110;7.020;2023-02-28T06:05:15;-1.80;99.90
8220;DHT22;4151;51.110;7.020;2023-02-28T06:07:41;-1.80;99.90
8220;DHT22;4151;51.110;7.020;2023-02-28T06:10:07;-1.90;99.90
8220;DHT22;4151;51.110;7.020;2023-02-28T06:12:33;-1.90;99.90
8220;DHT22;4151;51.110;7.020;2023-02-28T06:14:59;-1.90;99.90
8220;DHT22;4151;51.110;7.020;2023-02-28T06:17:24;-1.90;99.90
8220;DHT22;4151;51.110;7.020;2023-02-28T06:19:50;-2.00;99.90
8220;DHT22;4151;51.110;7.020;2023-02-28T06:22:15;-2.00;99.90
8220;DHT22;4151;51.110;7.020;2023-02-28T06:24:41;-2.10;99.90
8220;DHT22;4151;51.110;7.020;2023-02-28T06:27:06;-2.10;99.90
8220;DHT22;4151;51.110;7.020;2023-02-28T06:29:33;-2.10;99.90
8220;DHT22;4151;51.110;7.020;2023-02-28T06:31:59;-2.10;99.90
8220;DHT22;4151;51.110;7.020;2023-02-28T06:34:25;-2.10;99.90
8220;DHT22;4151;51.110;7.020;2023-02-28T06:36:51;-2.10;99.90
8220;DHT22;4151;51.110;7.020;2023-02-28T06:39:17;-2.10;99.90
8220;DHT22;4151;51.110;7.020;2023-02-28T06:41:43;-2.00;99.90
8220;DHT22;4151;51.110;7.020;2023-02-28T06:44:15;-1.90;99.90
8220;DHT22;4151;51.110;7.020;2023-02-28T06:46:42;-1.90;99.90
8220;DHT22;4151;51.110;7.020;2023-02-28T06:49:09;-1.80;99.90
8220;DHT22;4151;51.110;7.020;2023-02-28T06:51:37;-1.80;99.90
8220;DHT22;4151;51.110;7.020;2023-02-28T06:54:04;-1.80;99.90
8220;DHT22;4151;51.110;7.020;2023-02-28T06:56:30;-1.80;99.90
8220;DHT22;4151;51.110;7.020;2023-02-28T06:58:56;-1.70;99.90
8220;DHT22;4151;51.110;7.020;2023-02-28T07:01:22;-1.70;99.90
8220;DHT22;4151;51.110;7.020;2023-02-28T07:03:49;-1.60;99.90
8220;DHT22;4151;51.110;7.020;2023-02-28T07:06:19;-1.50;99.90
8220;DHT22;4151;51.110;7.020;2023-02-28T07:08:45;-1.50;99.90
8220;DHT22;4151;51.110;7.020;2023-02-28T07:11:10;-1.40;99.90
8220;DHT22;4151;51.110;7.020;2023-02-28T07:13:36;-1.40;99.90
8220;DHT22;4151;51.110;7.020;2023-02-28T07:16:06;-1.30;99.90
8220;DHT22;4151;51.110;7.020;2023-02-28T07:18:33;-1.20;99.90
8220;DHT22;4151;51.110;7.020;2023-02-28T07:21:02;-1.10;99.90
8220;DHT22;4151;51.110;7.020;2023-02-28T07:23:27;-1.00;99.90
8220;DHT22;4151;51.110;7.020;2023-02-28T07:25:53;-1.00;99.90
8220;DHT22;4151;51.110;7.020;2023-02-28T07:28:19;-0.90;99.90
8220;DHT22;4151;51.110;7.020;2023-02-28T07:30:44;-0.80;99.90
8220;DHT22;4151;51.110;7.020;2023-02-28T07:33:10;-0.70;99.90
8220;DHT22;4151;51.110;7.020;2023-02-28T07:35:36;-0.60;99.90
8220;DHT22;4151;51.110;7.020;2023-02-28T07:38:02;-0.50;99.90
8220;DHT22;4151;51.110;7.020;2023-02-28T07:40:28;-0.40;99.90
8220;DHT22;4151;51.110;7.020;2023-02-28T07:42:54;-0.30;99.90
8220;DHT22;4151;51.110;7.020;2023-02-28T07:45:20;-0.20;99.90
8220;DHT22;4151;51.110;7.020;2023-02-28T07:47:45;0.00;99.90
8220;DHT22;4151;51.110;7.020;2023-02-28T07:50:14;0.10;99.90
8220;DHT22;4151;51.110;7.020;2023-02-28T07:52:40;0.20;99.90
8220;DHT22;4151;51.110;7.020;2023-02-28T07:55:07;0.30;99.90
8220;DHT22;4151;51.110;7.020;2023-02-28T07:57:33;0.40;99.90
8220;DHT22;4151;51.110;7.020;2023-02-28T07:59:59;0.50;99.90
8220;DHT22;4151;51.110;7.020;2023-02-28T08:02:25;0.60;99.90
8220;DHT22;4151;51.110;7.020;2023-02-28T08:04:50;0.70;99.90
8220;DHT22;4151;51.110;7.020;2023-02-28T08:07:17;0.80;99.90
8220;DHT22;4151;51.110;7.020;2023-02-28T08:09:43;0.80;99.90
8220;DHT22;4151;51.110;7.020;2023-02-28T08:12:10;0.90;99.90
8220;DHT22;4151;51.110;7.020;2023-02-28T08:14:36;1.00;99.90
8220;DHT22;4151;51.110;7.020;2023-02-28T08:17:03;1.10;99.90
8220;DHT22;4151;51.110;7.020;2023-02-28T08:19:29;1.20;99.90
8220;DHT22;4151;51.110;7.020;2023-02-28T08:21:56;1.30;99.90
8220;DHT22;4151;51.110;7.020;2023-02-28T08:24:21;1.40;99.90
8220;DHT22;4151;51.110;7.020;2023-02-28T08:26:47;1.50;99.90
8220;DHT22;4151;51.110;7.020;2023-02-28T08:29:12;1.90;99.90
8220;DHT22;4151;51.110;7.020;2023-02-28T08:31:38;2.60;99.90
8220;DHT22;4151;51.110;7.020;2023-02-28T08:34:14;3.60;99.90
8220;DHT22;4151;51.110;7.020;2023-02-28T08:36:41;4.70;99.90
8220;DHT22;4151;51.110;7.020;2023-02-28T08:39:07;4.90;99.90
8220;DHT22;4151;51.110;7.020;2023-02-28T08:41:33;5.40;99.90
8220;DHT22;4151;51.110;7.020;2023-02-28T08:43:59;5.80;99.90
8220;DHT22;4151;51.110;7.020;2023-02-28T08:46:25;5.70;99.90
8220;DHT22;4151;51.110;7.020;2023-02-28T08:48:52;5.70;99.90
8220;DHT22;4151;51.110;7.020;2023-02-28T08:51:19;6.20;99.90
8220;DHT22;4151;51.110;7.020;2023-02-28T08:53:58;6.00;99.90
8220;DHT22;4151;51.110;7.020;2023-02-28T08:56:26;6.20;99.90
8220;DHT22;4151;51.110;7.020;2023-02-28T08:58:53;6.60;99.90
8220;DHT22;4151;51.110;7.020;2023-02-28T09:01:23;6.60;99.90
8220;DHT22;4151;51.110;7.020;2023-02-28T09:03:50;6.80;99.90
8220;DHT22;4151;51.110;7.020;2023-02-28T09:06:18;6.80;99.90
8220;DHT22;4151;51.110;7.020;2023-02-28T09:08:44;6.60;99.90
8220;DHT22;4151;51.110;7.020;2023-02-28T09:11:10;6.70;99.90
8220;DHT22;4151;51.110;7.020;2023-02-28T09:13:36;7.00;99.90
8220;DHT22;4151;51.110;7.020;2023-02-28T09:16:03;7.00;99.90
8220;DHT22;4151;51.110;7.020;2023-02-28T09:18:29;6.90;99.90
8220;DHT22;4151;51.110;7.020;2023-02-28T09:20:55;6.90;99.90
8220;DHT22;4151;51.110;7.020;2023-02-28T09:23:21;7.50;99.90
8220;DHT22;4151;51.110;7.020;2023-02-28T09:25:49;7.70;99.90
8220;DHT22;4151;51.110;7.020;2023-02-28T09:28:15;7.40;99.90
8220;DHT22;4151;51.110;7.020;2023-02-28T09:30:44;7.50;99.90
8220;DHT22;4151;51.110;7.020;2023-02-28T09:33:10;7.60;99.90
8220;DHT22;4151;51.110;7.020;2023-02-28T09:35:35;7.50;99.90
8220;DHT22;4151;51.110;7.020;2023-02-28T09:38:03;7.70;99.90
8220;DHT22;4151;51.110;7.020;2023-02-28T09:40:28;8.60;99.90
8220;DHT22;4151;51.110;7.020;2023-02-28T09:42:56;8.20;99.80
8220;DHT22;4151;51.110;7.020;2023-02-28T09:45:36;7.80;99.90
8220;DHT22;4151;51.110;7.020;2023-02-28T09:48:10;7.50;99.90
8220;DHT22;4151;51.110;7.020;2023-02-28T09:50:45;7.30;99.90
8220;DHT22;4151;51.110;7.020;2023-02-28T09:53:22;8.00;99.90
8220;DHT22;4151;51.110;7.020;2023-02-28T09:55:52;8.00;99.90
8220;DHT22;4151;51.110;7.020;2023-02-28T09:58:29;8.00;98.80
8220;DHT22;4151;51.110;7.020;2023-02-28T10:01:12;7.50;99.90
8220;DHT22;4151;51.110;7.020;2023-02-28T10:06:27;8.20;99.80
8220;DHT22;4151;51.110;7.020;2023-02-28T10:09:14;9.10;98.00
8220;DHT22;4151;51.110;7.020;2023-02-28T10:11:43;8.70;98.10
8220;DHT22;4151;51.110;7.020;2023-02-28T10:14:23;8.60;98.30
8220;DHT22;4151;51.110;7.020;2023-02-28T10:16:50;7.70;99.90
8220;DHT22;4151;51.110;7.020;2023-02-28T10:22:50;7.10;99.90
8220;DHT22;4151;51.110;7.020;2023-02-28T10:25:20;7.30;99.90
8220;DHT22;4151;51.110;7.020;2023-02-28T10:27:47;8.40;99.90
8220;DHT22;4151;51.110;7.020;2023-02-28T10:30:13;9.30;99.70
8220;DHT22;4151;51.110;7.020;2023-02-28T10:32:40;10.40;97.70
8220;DHT22;4151;51.110;7.020;2023-02-28T10:37:43;10.00;95.20
8220;DHT22;4151;51.110;7.020;2023-02-28T10:40:32;9.90;94.40
8220;DHT22;4151;51.110;7.020;2023-02-28T10:43:03;8.90;95.50
8220;DHT22;4151;51.110;7.020;2023-02-28T10:45:34;8.30;95.90
8220;DHT22;4151;51.110;7.020;2023-02-28T10:48:05;8.00;96.40
8220;DHT22;4151;51.110;7.020;2023-02-28T10:56:17;8.20;98.10
8220;DHT22;4151;51.110;7.020;2023-02-28T10:59:03;9.70;96.40
8220;DHT22;4151;51.110;7.020;2023-02-28T11:03:57;10.20;94.10
8220;DHT22;4151;51.110;7.020;2023-02-28T11:06:34;9.60;94.20
8220;DHT22;4151;51.110;7.020;2023-02-28T11:09:03;9.60;94.40
8220;DHT22;4151;51.110;7.020;2023-02-28T11:11:31;9.80;95.30
8220;DHT22;4151;51.110;7.020;2023-02-28T11:14:19;10.40;94.10
8220;DHT22;4151;51.110;7.020;2023-02-28T11:16:46;10.90;93.40
8220;DHT22;4151;51.110;7.020;2023-02-28T11:19:20;11.00;93.20
8220;DHT22;4151;51.110;7.020;2023-02-28T11:21:59;11.40;92.50
8220;DHT22;4151;51.110;7.020;2023-02-28T11:24:35;11.10;92.70
8220;DHT22;4151;51.110;7.020;2023-02-28T11:27:02;10.90;92.50
8220;DHT22;4151;51.110;7.020;2023-02-28T11:29:32;10.00;93.40
8220;DHT22;4151;51.110;7.020;2023-02-28T11:34:36;10.50;93.90
8220;DHT22;4151;51.110;7.020;2023-02-28T11:37:03;10.80;92.60
8220;DHT22;4151;51.110;7.020;2023-02-28T11:39:31;11.20;91.90
8220;DHT22;4151;51.110;7.020;2023-02-28T11:42:17;11.90;92.00
8220;DHT22;4151;51.110;7.020;2023-02-28T11:47:34;11.80;90.90
8220;DHT22;4151;51.110;7.020;2023-02-28T11:50:16;11.90;93.80
8220;DHT22;4151;51.110;7.020;2023-02-28T11:52:53;12.10;90.00
8220;DHT22;4151;51.110;7.020;2023-02-28T11:55:38;11.90;90.00
8220;DHT22;4151;51.110;7.020;2023-02-28T12:00:52;11.50;90.00
8220;DHT22;4151;51.110;7.020;2023-02-28T12:06:31;10.30;91.30
8220;DHT22;4151;51.110;7.020;2023-02-28T12:12:21;9.10;92.80
8220;DHT22;4151;51.110;7.020;2023-02-28T12:18:14;10.10;92.40
8220;DHT22;4151;51.110;7.020;2023-02-28T12:20:44;10.70;91.50
8220;DHT22;4151;51.110;7.020;2023-02-28T12:23:38;11.80;90.10
8220;DHT22;4151;51.110;7.020;2023-02-28T12:26:13;12.20;89.40
8220;DHT22;4151;51.110;7.020;2023-02-28T12:28:49;13.90;86.90
8220;DHT22;4151;51.110;7.020;2023-02-28T12:31:30;14.80;84.50
8220;DHT22;4151;51.110;7.020;2023-02-28T12:34:03;15.00;81.20
8220;DHT22;4151;51.110;7.020;2023-02-28T12:36:30;14.50;78.50
8220;DHT22;4151;51.110;7.020;2023-02-28T12:39:01;14.40;77.60
8220;DHT22;4151;51.110;7.020;2023-02-28T12:41:37;14.90;77.90
8220;DHT22;4151;51.110;7.020;2023-02-28T12:44:09;14.40;76.40
8220;DHT22;4151;51.110;7.020;2023-02-28T12:46:42;14.50;76.90
8220;DHT22;4151;51.110;7.020;2023-02-28T12:49:22;14.10;75.70
8220;DHT22;4151;51.110;7.020;2023-02-28T12:51:50;13.70;77.10
8220;DHT22;4151;51.110;7.020;2023-02-28T12:57:06;14.80;74.20
8220;DHT22;4151;51.110;7.020;2023-02-28T13:02:50;14.20;74.20
8220;DHT22;4151;51.110;7.020;2023-02-28T13:10:53;15.50;71.00
8220;DHT22;4151;51.110;7.020;2023-02-28T13:13:26;16.00;70.80
8220;DHT22;4151;51.110;7.020;2023-02-28T13:21:03;14.40;72.30
8220;DHT22;4151;51.110;7.020;2023-02-28T13:26:17;15.10;72.20
8220;DHT22;4151;51.110;7.020;2023-02-28T13:29:03;14.30;72.40
8220;DHT22;4151;51.110;7.020;2023-02-28T13:34:35;14.80;70.20
8220;DHT22;4151;51.110;7.020;2023-02-28T13:40:48;15.10;71.30
8220;DHT22;4151;51.110;7.020;2023-02-28T13:42:49;15.60;69.70
8220;DHT22;4151;51.110;7.020;2023-02-28T13:45:26;15.10;70.10
8220;DHT22;4151;51.110;7.020;2023-02-28T13:47:59;15.30;69.50
8220;DHT22;4151;51.110;7.020;2023-02-28T13:53:14;15.20;69.70
8220;DHT22;4151;51.110;7.020;2023-02-28T13:56:19;14.70;71.00
8220;DHT22;4151;51.110;7.020;2023-02-28T13:59:04;14.30;69.10
8220;DHT22;4151;51.110;7.020;2023-02-28T14:04:54;14.60;68.70
8220;DHT22;4151;51.110;7.020;2023-02-28T14:07:27;14.90;69.90
8220;DHT22;4151;51.110;7.020;2023-02-28T14:10:03;14.40;69.50
8220;DHT22;4151;51.110;7.020;2023-02-28T14:18:28;15.50;67.40
8220;DHT22;4151;51.110;7.020;2023-02-28T14:21:43;15.80;67.20
8220;DHT22;4151;51.110;7.020;2023-02-28T14:23:54;15.70;66.40
8220;DHT22;4151;51.110;7.020;2023-02-28T14:26:36;16.30;66.70
8220;DHT22;4151;51.110;7.020;2023-02-28T14:32:18;17.00;65.70
8220;DHT22;4151;51.110;7.020;2023-02-28T14:37:40;16.80;63.60
8220;DHT22;4151;51.110;7.020;2023-02-28T14:40:19;16.90;63.40
8220;DHT22;4151;51.110;7.020;2023-02-28T14:42:54;16.60;63.30
8220;DHT22;4151;51.110;7.020;2023-02-28T14:45:21;16.00;64.40
8220;DHT22;4151;51.110;7.020;2023-02-28T14:47:49;16.50;64.30
8220;DHT22;4151;51.110;7.020;2023-02-28T14:50:21;16.90;64.20
8220;DHT22;4151;51.110;7.020;2023-02-28T14:52:49;17.70;62.90
8220;DHT22;4151;51.110;7.020;2023-02-28T14:55:18;18.20;61.60
8220;DHT22;4151;51.110;7.020;2023-02-28T14:57:53;17.40;62.00
8220;DHT22;4151;51.110;7.020;2023-02-28T15:00:31;18.40;60.80
8220;DHT22;4151;51.110;7.020;2023-02-28T15:02:58;17.50;61.30
8220;DHT22;4151;51.110;7.020;2023-02-28T15:05:31;17.80;60.70
8220;DHT22;4151;51.110;7.020;2023-02-28T15:10:28;19.40;59.30
8220;DHT22;4151;51.110;7.020;2023-02-28T15:13:02;19.10;58.20
8220;DHT22;4151;51.110;7.020;2023-02-28T15:15:58;18.50;59.80
8220;DHT22;4151;51.110;7.020;2023-02-28T15:18:48;19.20;58.70
8220;DHT22;4151;51.110;7.020;2023-02-28T15:21:17;19.10;58.10
8220;DHT22;4151;51.110;7.020;2023-02-28T15:23:46;18.80;58.20
8220;DHT22;4151;51.110;7.020;2023-02-28T15:26:20;18.60;58.50
8220;DHT22;4151;51.110;7.020;2023-02-28T15:28:50;19.40;58.30
8220;DHT22;4151;51.110;7.020;2023-02-28T15:34:12;20.50;56.20
8220;DHT22;4151;51.110;7.020;2023-02-28T15:36:42;19.50;55.40
8220;DHT22;4151;51.110;7.020;2023-02-28T15:39:26;19.00;56.50
8220;DHT22;4151;51.110;7.020;2023-02-28T15:42:21;18.20;56.90
8220;DHT22;4151;51.110;7.020;2023-02-28T15:44:47;18.50;57.60
8220;DHT22;4151;51.110;7.020;2023-02-28T15:47:21;18.50;57.40
8220;DHT22;4151;51.110;7.020;2023-02-28T15:49:59;17.90;58.10
8220;DHT22;4151;51.110;7.020;2023-02-28T15:52:29;17.10;58.50
8220;DHT22;4151;51.110;7.020;2023-02-28T15:54:58;16.60;59.10
8220;DHT22;4151;51.110;7.020;2023-02-28T15:57:26;17.20;59.40
8220;DHT22;4151;51.110;7.020;2023-02-28T15:59:56;17.80;59.00
8220;DHT22;4151;51.110;7.020;2023-02-28T16:02:34;18.00;58.10
8220;DHT22;4151;51.110;7.020;2023-02-28T16:07:31;17.40;58.10
8220;DHT22;4151;51.110;7.020;2023-02-28T16:09:56;16.60;60.00
8220;DHT22;4151;51.110;7.020;2023-02-28T16:12:26;16.30;61.30
8220;DHT22;4151;51.110;7.020;2023-02-28T16:14:53;16.40;61.00
8220;DHT22;4151;51.110;7.020;2023-02-28T16:17:27;16.10;61.10
8220;DHT22;4151;51.110;7.020;2023-02-28T16:19:54;15.80;61.70
8220;DHT22;4151;51.110;7.020;2023-02-28T16:22:21;15.00;62.70
8220;DHT22;4151;51.110;7.020;2023-02-28T16:24:46;14.90;63.30
8220;DHT22;4151;51.110;7.020;2023-02-28T16:27:35;14.70;63.20
8220;DHT22;4151;51.110;7.020;2023-02-28T16:30:02;15.00;63.50
8220;DHT22;4151;51.110;7.020;2023-02-28T16:32:28;14.40;64.60
8220;DHT22;4151;51.110;7.020;2023-02-28T16:34:54;14.30;65.40
8220;DHT22;4151;51.110;7.020;2023-02-28T16:37:20;13.30;67.40
8220;DHT22;4151;51.110;7.020;2023-02-28T16:39:45;11.80;70.50
8220;DHT22;4151;51.110;7.020;2023-02-28T16:42:26;10.70;74.20
8220;DHT22;4151;51.110;7.020;2023-02-28T16:44:53;9.50;78.50
8220;DHT22;4151;51.110;7.020;2023-02-28T16:47:19;8.80;82.80
8220;DHT22;4151;51.110;7.020;2023-02-28T16:49:44;8.00;87.80
8220;DHT22;4151;51.110;7.020;2023-02-28T16:52:11;7.40;91.60
8220;DHT22;4151;51.110;7.020;2023-02-28T16:54:38;6.80;94.00
8220;DHT22;4151;51.110;7.020;2023-02-28T16:57:05;6.40;96.40
8220;DHT22;4151;51.110;7.020;2023-02-28T16:59:31;6.20;98.30
8220;DHT22;4151;51.110;7.020;2023-02-28T17:01:57;5.90;99.90
8220;DHT22;4151;51.110;7.020;2023-02-28T17:04:27;5.70;99.90
8220;DHT22;4151;51.110;7.020;2023-02-28T17:06:52;5.50;99.90
8220;DHT22;4151;51.110;7.020;2023-02-28T17:09:22;5.40;99.90
8220;DHT22;4151;51.110;7.020;2023-02-28T17:11:48;5.20;99.90
8220;DHT22;4151;51.110;7.020;2023-02-28T17:14:15;5.00;99.90
8220;DHT22;4151;51.110;7.020;2023-02-28T17:16:41;4.90;99.90
8220;DHT22;4151;51.110;7.020;2023-02-28T17:19:13;4.80;99.90
8220;DHT22;4151;51.110;7.020;2023-02-28T17:21:39;4.60;99.90
8220;DHT22;4151;51.110;7.020;2023-02-28T17:24:08;4.60;99.90
8220;DHT22;4151;51.110;7.020;2023-02-28T17:26:33;4.40;99.90
8220;DHT22;4151;51.110;7.020;2023-02-28T17:28:59;4.30;99.90
8220;DHT22;4151;51.110;7.020;2023-02-28T17:31:25;4.20;99.90
8220;DHT22;4151;51.110;7.020;2023-02-28T17:33:52;4.10;99.90
8220;DHT22;4151;51.110;7.020;2023-02-28T17:36:22;4.00;99.90
8220;DHT22;4151;51.110;7.020;2023-02-28T17:38:49;4.00;99.90
8220;DHT22;4151;51.110;7.020;2023-02-28T17:41:15;3.90;99.90
8220;DHT22;4151;51.110;7.020;2023-02-28T17:43:41;3.90;99.90
8220;DHT22;4151;51.110;7.020;2023-02-28T17:46:16;3.80;99.90
8220;DHT22;4151;51.110;7.020;2023-02-28T17:48:42;3.70;99.90
8220;DHT22;4151;51.110;7.020;2023-02-28T17:51:11;3.60;99.90
8220;DHT22;4151;51.110;7.020;2023-02-28T17:53:37;3.60;99.90
8220;DHT22;4151;51.110;7.020;2023-02-28T17:56:03;3.50;99.90
8220;DHT22;4151;51.110;7.020;2023-02-28T17:58:29;3.40;99.90
8220;DHT22;4151;51.110;7.020;2023-02-28T18:00:56;3.40;99.90
8220;DHT22;4151;51.110;7.020;2023-02-28T18:03:22;3.30;99.90
8220;DHT22;4151;51.110;7.020;2023-02-28T18:05:49;3.30;99.90
8220;DHT22;4151;51.110;7.020;2023-02-28T18:08:15;3.20;99.90
8220;DHT22;4151;51.110;7.020;2023-02-28T18:10:41;3.20;99.90
8220;DHT22;4151;51.110;7.020;2023-02-28T18:23:32;3.00;99.90
8220;DHT22;4151;51.110;7.020;2023-02-28T18:25:58;3.00;99.90
8220;DHT22;4151;51.110;7.020;2023-02-28T18:28:24;2.90;99.90
8220;DHT22;4151;51.110;7.020;2023-02-28T18:30:50;2.90;99.90
8220;DHT22;4151;51.110;7.020;2023-02-28T18:33:15;2.80;99.90
8220;DHT22;4151;51.110;7.020;2023-02-28T18:35:41;2.80;99.90
8220;DHT22;4151;51.110;7.020;2023-02-28T18:38:16;2.70;99.90
8220;DHT22;4151;51.110;7.020;2023-02-28T18:40:57;2.70;99.90
8220;DHT22;4151;51.110;7.020;2023-02-28T18:43:25;2.60;99.90
8220;DHT22;4151;51.110;7.020;2023-02-28T18:45:51;2.60;99.90
8220;DHT22;4151;51.110;7.020;2023-02-28T18:48:16;2.50;99.90